createdAt,value
2023-03-23T15:59:31.322Z,2.40
2023-03-23T16:01:58.284Z,2.28
2023-03-23T16:04:26.833Z,3.20
2023-03-23T16:06:56.644Z,2.65
2023-03-23T16:09:23.386Z,2.40
2023-03-23T16:11:50.080Z,2.60
2023-03-23T16:14:16.781Z,1.83
2023-03-23T16:16:50.271Z,2.00
2023-03-23T16:19:18.290Z,1.90
2023-03-23T16:21:45.048Z,1.65
2023-03-23T16:24:11.998Z,2.15
2023-03-23T16:26:41.089Z,1.90
2023-03-23T16:29:29.138Z,2.03
2023-03-23T16:32:01.461Z,1.85
2023-03-23T16:34:30.208Z,1.88
2023-03-23T16:36:56.935Z,2.00
2023-03-23T16:39:23.755Z,2.60
2023-03-23T16:41:50.751Z,2.33
2023-03-23T16:44:17.515Z,2.13
2023-03-23T16:46:44.274Z,2.00
2023-03-23T16:49:10.923Z,2.42
2023-03-23T16:51:38.616Z,2.30
2023-03-23T16:54:11.475Z,2.17
2023-03-23T16:56:38.870Z,2.72
2023-03-23T16:59:06.895Z,2.17
2023-03-23T17:01:33.658Z,1.83
2023-03-23T17:04:03.054Z,2.38
2023-03-23T17:06:31.891Z,2.25
2023-03-23T17:09:01.287Z,1.58
2023-03-23T17:11:28.023Z,2.63
2023-03-23T17:13:54.756Z,1.52
2023-03-23T17:16:21.541Z,1.98
2023-03-23T17:18:48.316Z,1.83
2023-03-23T17:21:20.681Z,2.40
2023-03-23T17:23:55.819Z,2.20
2023-03-23T17:26:22.460Z,3.00
2023-03-23T17:28:50.710Z,1.65
2023-03-23T17:31:17.458Z,2.05
2023-03-23T17:33:48.150Z,2.33
2023-03-23T17:36:17.277Z,2.35
2023-03-23T17:38:44.256Z,1.95
2023-03-23T17:41:14.807Z,2.95
2023-03-23T17:43:46.501Z,2.08
2023-03-23T17:46:13.452Z,1.85
2023-03-23T17:48:40.370Z,1.73
2023-03-23T17:51:07.721Z,2.50
2023-03-23T17:53:39.236Z,2.20
2023-03-23T17:56:11.923Z,1.75
2023-03-23T17:58:38.897Z,1.92
2023-03-23T18:01:07.574Z,1.92
2023-03-23T18:03:34.693Z,1.73
2023-03-23T18:06:08.584Z,1.83
2023-03-23T18:08:36.716Z,2.50
2023-03-23T18:11:04.153Z,2.45
2023-03-23T18:13:35.456Z,2.45
2023-03-23T18:16:03.911Z,2.35
2023-03-23T18:18:31.360Z,2.97
2023-03-23T18:21:08.226Z,2.45
2023-03-23T18:23:45.995Z,3.40
2023-03-23T18:26:22.134Z,3.08
2023-03-23T18:28:51.371Z,2.55
2023-03-23T18:31:19.817Z,2.05
2023-03-23T18:33:48.928Z,2.33
2023-03-23T18:36:18.988Z,2.67
2023-03-23T18:38:51.394Z,2.20
2023-03-23T18:41:19.114Z,2.30
2023-03-23T18:43:46.635Z,1.92
2023-03-23T18:46:13.752Z,2.03
2023-03-23T18:48:40.870Z,1.55
2023-03-23T18:51:09.095Z,2.03
2023-03-23T18:53:36.362Z,2.00
2023-03-23T18:56:09.575Z,2.70
2023-03-23T19:01:07.677Z,2.50
2023-03-23T19:03:36.418Z,1.88
2023-03-23T19:06:04.727Z,1.60
2023-03-23T19:08:32.820Z,1.75
2023-03-23T19:11:02.648Z,38.92
2023-03-23T19:13:30.908Z,18.20
2023-03-23T19:15:57.901Z,29.23
2023-03-23T19:18:24.871Z,17.38
2023-03-23T19:23:22.416Z,30.80
2023-03-23T19:25:50.573Z,17.27
2023-03-23T19:30:49.003Z,10.68
2023-03-23T19:33:17.161Z,9.30
2023-03-23T19:35:45.335Z,7.55
2023-03-23T19:38:17.956Z,5.20
2023-03-23T19:41:03.784Z,3.67
2023-03-23T19:43:32.448Z,3.53
2023-03-23T19:46:00.114Z,2.92
2023-03-23T19:48:27.291Z,2.92
2023-03-23T19:50:58.207Z,2.70
2023-03-23T19:53:26.571Z,2.92
2023-03-23T19:55:53.752Z,2.50
2023-03-23T19:58:21.679Z,2.92
2023-03-23T20:00:49.035Z,2.85
2023-03-23T20:03:16.850Z,2.58
2023-03-23T20:05:44.530Z,3.92
2023-03-23T20:08:14.919Z,2.85
2023-03-23T20:10:41.815Z,2.00
2023-03-23T20:13:12.103Z,2.13
2023-03-23T20:15:38.936Z,2.22
2023-03-23T20:18:07.477Z,2.55
2023-03-23T20:20:36.737Z,3.13
2023-03-23T20:23:04.744Z,2.40
2023-03-23T20:25:32.007Z,1.95
2023-03-23T20:28:01.942Z,3.75
2023-03-23T20:30:29.275Z,2.80
2023-03-23T20:32:58.323Z,2.65
2023-03-23T20:35:25.117Z,2.15
2023-03-23T20:37:52.807Z,2.25
2023-03-23T20:40:23.516Z,3.35
2023-03-23T20:42:52.998Z,2.05
2023-03-23T20:45:20.274Z,1.95
2023-03-23T20:47:47.250Z,2.58
2023-03-23T20:50:15.481Z,2.10
2023-03-23T20:52:42.842Z,3.45
2023-03-23T20:55:09.727Z,2.50
2023-03-23T20:57:38.510Z,2.58
2023-03-23T21:00:06.840Z,2.75
2023-03-23T21:02:34.339Z,2.65
2023-03-23T21:05:05.138Z,2.40
2023-03-23T21:07:32.717Z,2.67
2023-03-23T21:10:00.329Z,2.58
2023-03-23T21:12:27.310Z,2.65
2023-03-23T21:14:54.333Z,2.67
2023-03-23T21:17:21.286Z,2.45
2023-03-23T21:19:49.051Z,2.75
2023-03-23T21:22:18.690Z,1.98
2023-03-23T21:24:46.704Z,2.03
2023-03-23T21:27:13.492Z,1.90
2023-03-23T21:29:40.452Z,2.05
2023-03-23T21:32:08.864Z,1.70
2023-03-23T21:34:37.423Z,2.78
2023-03-23T21:37:04.428Z,4.03
2023-03-23T21:39:31.704Z,2.80
2023-03-23T21:41:59.591Z,2.83
2023-03-23T21:44:26.460Z,2.70
2023-03-23T21:46:54.627Z,2.67
2023-03-23T21:49:21.853Z,2.20
2023-03-23T21:51:49.574Z,2.67
2023-03-23T21:54:16.414Z,2.20
2023-03-23T21:56:43.364Z,2.25
2023-03-23T21:59:10.236Z,2.72
2023-03-23T22:01:37.410Z,2.25
2023-03-23T22:04:04.619Z,3.22
2023-03-23T22:06:31.584Z,3.22
2023-03-23T22:08:58.494Z,2.90
2023-03-23T22:11:29.300Z,2.65
2023-03-23T22:13:57.751Z,3.15
2023-03-23T22:16:25.852Z,4.47
2023-03-23T22:18:53.799Z,2.83
2023-03-23T22:21:22.235Z,3.63
2023-03-23T22:23:49.498Z,2.92
2023-03-23T22:26:19.519Z,2.72
2023-03-23T22:28:47.743Z,2.67
2023-03-23T22:31:18.695Z,3.80
2023-03-23T22:33:47.507Z,3.63
2023-03-23T22:36:15.415Z,2.78
2023-03-23T22:38:45.214Z,3.65
2023-03-23T22:41:17.485Z,3.63
2023-03-23T22:43:44.228Z,2.95
2023-03-23T22:46:11.063Z,3.28
2023-03-23T22:48:38.065Z,3.35
2023-03-23T22:51:05.312Z,4.38
2023-03-23T22:53:32.100Z,3.50
2023-03-23T22:55:59.263Z,3.95
2023-03-23T22:58:28.966Z,3.17
2023-03-23T23:00:59.267Z,3.15
2023-03-23T23:03:27.339Z,3.47
2023-03-23T23:05:56.304Z,3.80
2023-03-23T23:08:24.231Z,3.42
2023-03-23T23:10:53.472Z,3.35
2023-03-23T23:13:21.081Z,3.15
2023-03-23T23:15:51.870Z,3.85
2023-03-23T23:18:20.510Z,3.90
2023-03-23T23:20:52.228Z,4.22
2023-03-23T23:23:19.331Z,3.88
2023-03-23T23:25:46.887Z,3.72
2023-03-23T23:28:13.886Z,5.18
2023-03-23T23:30:41.025Z,4.43
2023-03-23T23:33:09.412Z,4.63
2023-03-23T23:35:37.482Z,3.90
2023-03-23T23:38:05.476Z,4.55
2023-03-23T23:40:35.580Z,6.60
2023-03-23T23:43:03.586Z,4.60
2023-03-23T23:45:30.517Z,4.25
2023-03-23T23:47:57.853Z,5.05
2023-03-23T23:50:25.717Z,3.80
2023-03-23T23:52:53.004Z,4.13
2023-03-23T23:55:20.940Z,4.15
2023-03-23T23:57:48.926Z,4.80
